Time;durP1;ratioP1;P1;durP2;ratioP2;P2;SDS_P1;SDS_P2;PMS_P1;PMS_P2;Temp;Humidity;BMP_temperature;BMP_pressure;BME280_temperature;BME280_humidity;BME280_pressure;Samples;Min_cycle;Max_cycle;Signal;HPM_P1;HPM_P2
2023/05/02 00:01:25;;;;;;;8.75;4.68;;;;;;;;;;5095891;28;20051;-62
2023/05/02 00:03:52;;;;;;;8.90;4.65;;;;;;;;;;5095830;28;20032;-62
2023/05/02 00:06:20;;;;;;;9.60;4.97;;;;;;;;;;5095767;28;20615;-62
2023/05/02 00:08:51;;;;;;;7.88;5.30;;;;;;;;;;5095602;28;20056;-62
2023/05/02 00:11:18;;;;;;;8.10;4.90;;;;;;;;;;5095727;28;20075;-62
2023/05/02 00:13:46;;;;;;;7.45;4.68;;;;;;;;;;5077552;28;20044;-62
2023/05/02 00:16:13;;;;;;;9.20;4.88;;;;;;;;;;5095733;28;20430;-62
2023/05/02 00:18:41;;;;;;;6.75;4.93;;;;;;;;;;5095636;28;20122;-62
2023/05/02 00:21:08;;;;;;;10.38;5.10;;;;;;;;;;5077781;28;20039;-62
2023/05/02 00:23:36;;;;;;;7.55;4.75;;;;;;;;;;5095439;28;20490;-62
2023/05/02 00:26:07;;;;;;;7.95;4.82;;;;;;;;;;5095511;28;20481;-62
2023/05/02 00:28:37;;;;;;;7.28;4.78;;;;;;;;;;5094144;28;20051;-62
2023/05/02 00:31:04;;;;;;;6.38;4.85;;;;;;;;;;5095484;28;20494;-62
2023/05/02 00:33:32;;;;;;;6.90;4.40;;;;;;;;;;5095216;28;20052;-62
2023/05/02 00:36:00;;;;;;;10.68;5.00;;;;;;;;;;5094065;28;20032;-62
2023/05/02 00:38:27;;;;;;;9.38;4.97;;;;;;;;;;5076869;28;20166;-62
2023/05/02 00:40:55;;;;;;;8.48;4.93;;;;;;;;;;5094306;28;20040;-62
2023/05/02 00:43:22;;;;;;;6.68;4.80;;;;;;;;;;5093840;28;20416;-62
2023/05/02 00:45:50;;;;;;;7.70;5.00;;;;;;;;;;5095026;28;20052;-62
2023/05/02 00:48:20;;;;;;;8.35;4.65;;;;;;;;;;5093566;28;20044;-62
2023/05/02 00:50:48;;;;;;;6.90;4.85;;;;;;;;;;5076856;28;20044;-62
2023/05/02 00:53:15;;;;;;;6.53;4.40;;;;;;;;;;5076770;28;20044;-62
2023/05/02 00:55:43;;;;;;;9.40;4.93;;;;;;;;;;5093624;28;20478;-62
2023/05/02 00:58:11;;;;;;;8.00;4.28;;;;;;;;;;5076844;28;20184;-62
2023/05/02 01:00:51;;;;;;;7.13;4.38;;;;;;;;;;5093328;28;20498;-62
2023/05/02 01:03:31;;;;;;;5.07;3.72;;;;;;;;;;5093545;28;20112;-62
2023/05/02 01:06:10;;;;;;;7.13;4.38;;;;;;;;;;5094802;28;20063;-62
2023/05/02 01:08:47;;;;;;;6.00;4.22;;;;;;;;;;5093101;28;20135;-61
2023/05/02 01:11:18;;;;;;;7.55;4.53;;;;;;;;;;5094642;28;20470;-61
2023/05/02 01:13:47;;;;;;;6.72;4.25;;;;;;;;;;5093263;28;20123;-63
2023/05/02 01:16:17;;;;;;;8.38;4.65;;;;;;;;;;5076410;28;20062;-62
2023/05/02 01:18:47;;;;;;;9.18;4.78;;;;;;;;;;5076435;28;20044;-63
2023/05/02 01:21:14;;;;;;;5.95;4.40;;;;;;;;;;5093261;28;20090;-62
2023/05/02 01:23:45;;;;;;;5.78;4.53;;;;;;;;;;5094455;28;20052;-62
2023/05/02 01:26:21;;;;;;;7.13;4.70;;;;;;;;;;5076323;28;20048;-62
2023/05/02 01:29:01;;;;;;;8.55;4.80;;;;;;;;;;5094281;28;20046;-62
2023/05/02 01:31:31;;;;;;;9.20;4.75;;;;;;;;;;5076126;28;20464;-63
2023/05/02 01:33:59;;;;;;;8.35;4.53;;;;;;;;;;5075864;28;20661;-62
2023/05/02 01:36:30;;;;;;;6.60;4.93;;;;;;;;;;5076062;28;20089;-63
2023/05/02 01:38:58;;;;;;;7.65;4.93;;;;;;;;;;5093953;28;20055;-63
2023/05/02 01:41:26;;;;;;;6.57;4.57;;;;;;;;;;5075915;28;20505;-62
2023/05/02 01:43:58;;;;;;;6.97;5.18;;;;;;;;;;5092466;28;20044;-63
2023/05/02 01:46:27;;;;;;;10.73;4.80;;;;;;;;;;5092806;28;20052;-63
2023/05/02 01:48:57;;;;;;;6.40;4.72;;;;;;;;;;5075538;28;20097;-62
2023/05/02 01:51:30;;;;;;;6.38;4.75;;;;;;;;;;5075649;28;20054;-62
2023/05/02 01:54:04;;;;;;;8.20;5.65;;;;;;;;;;5075608;28;20490;-62
2023/05/02 01:56:33;;;;;;;7.05;5.07;;;;;;;;;;5092509;28;20131;-62
2023/05/02 01:59:02;;;;;;;10.65;5.38;;;;;;;;;;5092379;28;20047;-62
2023/05/02 02:01:29;;;;;;;11.00;5.55;;;;;;;;;;5075411;28;20048;-62
2023/05/02 02:03:58;;;;;;;6.60;4.88;;;;;;;;;;5075431;28;20039;-62
2023/05/02 02:06:26;;;;;;;7.97;5.20;;;;;;;;;;5092266;28;20083;-62
2023/05/02 02:08:54;;;;;;;8.18;5.25;;;;;;;;;;5075392;28;20040;-62
2023/05/02 02:11:34;;;;;;;7.75;5.18;;;;;;;;;;5075244;28;20036;-62
2023/05/02 02:14:05;;;;;;;8.07;5.28;;;;;;;;;;5091747;28;20043;-62
2023/05/02 02:16:33;;;;;;;10.27;5.95;;;;;;;;;;5075520;28;20375;-62
2023/05/02 02:19:10;;;;;;;8.88;5.20;;;;;;;;;;5092182;28;20036;-62
2023/05/02 02:21:39;;;;;;;10.63;5.75;;;;;;;;;;5091972;28;20486;-62
2023/05/02 02:24:07;;;;;;;10.05;6.00;;;;;;;;;;5093198;28;20086;-63
2023/05/02 02:26:36;;;;;;;9.15;6.00;;;;;;;;;;5093267;28;20115;-62
2023/05/02 02:29:04;;;;;;;9.52;5.60;;;;;;;;;;5074869;28;20054;-62
2023/05/02 02:31:32;;;;;;;10.85;6.10;;;;;;;;;;5093172;28;20464;-62
2023/05/02 02:34:00;;;;;;;11.25;6.10;;;;;;;;;;5074858;28;20040;-62
2023/05/02 02:36:30;;;;;;;8.57;5.75;;;;;;;;;;5092978;28;20051;-62
2023/05/02 02:39:01;;;;;;;11.38;6.15;;;;;;;;;;5091530;28;20067;-63
2023/05/02 02:41:32;;;;;;;7.97;5.93;;;;;;;;;;5092955;28;20046;-62
2023/05/02 02:44:04;;;;;;;11.88;6.32;;;;;;;;;;5091601;28;20044;-63
2023/05/02 02:46:38;;;;;;;11.85;6.43;;;;;;;;;;5074666;28;20040;-62
2023/05/02 02:49:22;;;;;;;9.38;6.10;;;;;;;;;;5091462;28;20044;-62
2023/05/02 02:51:49;;;;;;;10.13;6.15;;;;;;;;;;5074914;28;20485;-63
2023/05/02 02:54:33;;;;;;;11.00;6.93;;;;;;;;;;5091476;28;20047;-62
2023/05/02 02:57:18;;;;;;;8.27;6.15;;;;;;;;;;5074894;28;20075;-62
2023/05/02 02:59:59;;;;;;;10.93;6.97;;;;;;;;;;5074979;28;20127;-63
2023/05/02 03:02:28;;;;;;;8.48;6.30;;;;;;;;;;5091421;28;20075;-63
2023/05/02 03:04:57;;;;;;;12.40;6.63;;;;;;;;;;5091346;28;20043;-62
2023/05/02 03:07:27;;;;;;;9.90;6.70;;;;;;;;;;5091363;28;20071;-62
2023/05/02 03:09:56;;;;;;;14.35;7.13;;;;;;;;;;5074827;28;20036;-63
2023/05/02 03:12:24;;;;;;;10.63;6.50;;;;;;;;;;5091322;28;20063;-62
2023/05/02 03:14:52;;;;;;;12.13;6.40;;;;;;;;;;5074796;28;20044;-63
2023/05/02 03:17:20;;;;;;;12.05;7.10;;;;;;;;;;5091232;28;20040;-62
2023/05/02 03:19:50;;;;;;;11.75;6.97;;;;;;;;;;5091013;28;20056;-62
2023/05/02 03:22:18;;;;;;;13.05;7.25;;;;;;;;;;5091155;28;20032;-62
2023/05/02 03:24:46;;;;;;;14.27;6.90;;;;;;;;;;5092533;28;20626;-62
2023/05/02 03:27:14;;;;;;;11.10;7.03;;;;;;;;;;5074224;28;20036;-63
2023/05/02 03:29:42;;;;;;;16.23;7.63;;;;;;;;;;5091781;28;20067;-63
2023/05/02 03:32:11;;;;;;;15.20;7.53;;;;;;;;;;5096637;28;20044;-63
2023/05/02 03:34:41;;;;;;;12.30;7.60;;;;;;;;;;5095181;28;20131;-63
2023/05/02 03:37:09;;;;;;;12.93;8.13;;;;;;;;;;5094755;28;20048;-63
2023/05/02 03:39:37;;;;;;;13.32;8.27;;;;;;;;;;5078087;28;20516;-63
2023/05/02 03:42:05;;;;;;;14.90;9.57;;;;;;;;;;5078068;28;20044;-63
2023/05/02 03:44:32;;;;;;;12.45;9.52;;;;;;;;;;5094919;28;20068;-62
2023/05/02 03:47:00;;;;;;;13.82;9.63;;;;;;;;;;5078089;28;20093;-62
2023/05/02 03:49:29;;;;;;;14.40;9.35;;;;;;;;;;5077949;28;20059;-63
2023/05/02 03:51:57;;;;;;;15.80;10.38;;;;;;;;;;5078078;28;20036;-63
2023/05/02 03:54:33;;;;;;;19.02;11.07;;;;;;;;;;5094771;28;20714;-63
2023/05/02 03:57:03;;;;;;;18.48;10.88;;;;;;;;;;5091847;28;20067;-63
2023/05/02 03:59:33;;;;;;;16.98;10.80;;;;;;;;;;5074308;28;20040;-63
2023/05/02 04:02:07;;;;;;;14.35;10.75;;;;;;;;;;5074226;28;20445;-63
2023/05/02 04:04:40;;;;;;;23.75;11.20;;;;;;;;;;5073604;28;20553;-63
2023/05/02 04:07:16;;;;;;;14.65;10.25;;;;;;;;;;5074257;28;20127;-63
2023/05/02 04:09:46;;;;;;;16.80;10.25;;;;;;;;;;5074554;28;20098;-63
2023/05/02 04:12:15;;;;;;;16.20;10.02;;;;;;;;;;5057412;28;20449;-63
2023/05/02 04:14:46;;;;;;;17.42;10.68;;;;;;;;;;5057301;28;20045;-63
2023/05/02 04:17:17;;;;;;;15.52;10.60;;;;;;;;;;5073984;28;20048;-63
2023/05/02 04:19:48;;;;;;;14.55;9.70;;;;;;;;;;5073956;28;20105;-64
2023/05/02 04:22:16;;;;;;;13.85;10.18;;;;;;;;;;5073889;28;20118;-64
2023/05/02 04:24:52;;;;;;;15.23;10.13;;;;;;;;;;5073745;28;20487;-64
2023/05/02 04:27:20;;;;;;;14.73;10.07;;;;;;;;;;5073797;28;20136;-64
2023/05/02 04:29:48;;;;;;;12.98;9.57;;;;;;;;;;5072109;28;20094;-64
2023/05/02 04:32:17;;;;;;;14.93;9.77;;;;;;;;;;5056605;28;20049;-63
2023/05/02 04:34:46;;;;;;;13.52;9.85;;;;;;;;;;5055998;28;20162;-64
2023/05/02 04:37:15;;;;;;;16.27;9.63;;;;;;;;;;5073272;28;20040;-64
2023/05/02 04:39:44;;;;;;;11.60;8.70;;;;;;;;;;5056826;28;20041;-64
2023/05/02 04:42:17;;;;;;;12.20;8.95;;;;;;;;;;5076710;28;20040;-64
2023/05/02 04:45:05;;;;;;;19.67;9.65;;;;;;;;;;5069942;28;20052;-63
2023/05/02 04:47:32;;;;;;;11.82;8.35;;;;;;;;;;5073388;28;20075;-63
2023/05/02 04:50:00;;;;;;;14.20;8.50;;;;;;;;;;5056985;28;20037;-63
2023/05/02 04:52:28;;;;;;;11.63;8.43;;;;;;;;;;5090133;28;20060;-64
2023/05/02 04:54:56;;;;;;;12.93;8.15;;;;;;;;;;5090244;28;20069;-64
2023/05/02 04:57:24;;;;;;;12.15;8.20;;;;;;;;;;5056519;28;20121;-64
2023/05/02 04:59:55;;;;;;;10.52;7.63;;;;;;;;;;5056357;28;20044;-64
2023/05/02 05:02:24;;;;;;;10.88;7.28;;;;;;;;;;5056225;28;20098;-64
2023/05/02 05:04:53;;;;;;;12.20;7.85;;;;;;;;;;5063829;28;20161;-64
2023/05/02 05:07:21;;;;;;;10.18;7.13;;;;;;;;;;5064782;28;20041;-63
2023/05/02 05:09:51;;;;;;;12.48;6.97;;;;;;;;;;5076510;28;20044;-64
2023/05/02 05:12:22;;;;;;;13.45;6.80;;;;;;;;;;5093384;28;20040;-64
2023/05/02 05:14:50;;;;;;;10.82;6.82;;;;;;;;;;5076490;28;20143;-64
2023/05/02 05:17:20;;;;;;;11.98;6.90;;;;;;;;;;5093287;28;20039;-64
2023/05/02 05:19:48;;;;;;;11.27;6.68;;;;;;;;;;5093213;28;20048;-64
2023/05/02 05:22:15;;;;;;;13.43;6.63;;;;;;;;;;5093177;28;20047;-64
2023/05/02 05:24:50;;;;;;;11.88;6.15;;;;;;;;;;5093219;28;20044;-63
2023/05/02 05:27:18;;;;;;;10.95;6.40;;;;;;;;;;5076397;28;20048;-64
2023/05/02 05:29:46;;;;;;;13.27;6.30;;;;;;;;;;5093112;28;20039;-65
2023/05/02 05:32:15;;;;;;;8.65;5.60;;;;;;;;;;5076271;28;20067;-64
2023/05/02 05:34:43;;;;;;;8.43;5.60;;;;;;;;;;5076127;28;20097;-64
2023/05/02 05:37:12;;;;;;;10.38;5.93;;;;;;;;;;5076070;28;20405;-64
2023/05/02 05:39:40;;;;;;;8.07;5.70;;;;;;;;;;5075904;28;20073;-63
2023/05/02 05:42:09;;;;;;;7.35;5.70;;;;;;;;;;5075887;28;20081;-62
2023/05/02 05:44:38;;;;;;;7.53;5.63;;;;;;;;;;5092702;28;20054;-63
2023/05/02 05:47:06;;;;;;;8.15;5.50;;;;;;;;;;5092508;28;20101;-62
2023/05/02 05:49:37;;;;;;;8.80;5.50;;;;;;;;;;5092612;28;20040;-63
2023/05/02 05:52:08;;;;;;;8.63;4.97;;;;;;;;;;5092372;28;20067;-63
2023/05/02 05:54:36;;;;;;;8.32;4.88;;;;;;;;;;5092344;28;20101;-63
2023/05/02 05:57:03;;;;;;;7.82;4.93;;;;;;;;;;5092435;28;20047;-63
2023/05/02 05:59:35;;;;;;;7.05;4.10;;;;;;;;;;5092176;28;20073;-63
2023/05/02 06:02:04;;;;;;;8.02;4.03;;;;;;;;;;5092124;28;20529;-63
2023/05/02 06:04:32;;;;;;;6.57;4.10;;;;;;;;;;5092027;28;20044;-63
2023/05/02 06:06:59;;;;;;;8.25;4.57;;;;;;;;;;5092353;28;20448;-63
2023/05/02 06:09:27;;;;;;;6.90;4.18;;;;;;;;;;5093409;28;20048;-63
2023/05/02 06:11:54;;;;;;;7.13;4.38;;;;;;;;;;5093400;28;20056;-64
2023/05/02 06:14:23;;;;;;;6.38;3.92;;;;;;;;;;5092102;28;20071;-63
2023/05/02 06:16:51;;;;;;;9.98;4.75;;;;;;;;;;5075203;28;20044;-63
2023/05/02 06:19:19;;;;;;;6.05;4.78;;;;;;;;;;5092874;28;20046;-63
2023/05/02 06:21:46;;;;;;;8.38;4.50;;;;;;;;;;5091908;28;20047;-64
2023/05/02 06:24:14;;;;;;;10.25;4.40;;;;;;;;;;5092007;28;20050;-64
2023/05/02 06:26:41;;;;;;;9.63;4.80;;;;;;;;;;5092958;28;20114;-63
2023/05/02 06:29:09;;;;;;;9.48;4.30;;;;;;;;;;5093110;28;20068;-63
2023/05/02 06:31:36;;;;;;;8.85;4.75;;;;;;;;;;5093244;28;20062;-63
2023/05/02 06:34:04;;;;;;;5.50;3.97;;;;;;;;;;5091812;28;20044;-62
2023/05/02 06:36:31;;;;;;;7.97;4.35;;;;;;;;;;5093042;28;20464;-63
2023/05/02 06:38:58;;;;;;;4.43;3.80;;;;;;;;;;5092932;28;20482;-63
2023/05/02 06:41:26;;;;;;;6.45;3.78;;;;;;;;;;5075246;28;20114;-62
2023/05/02 06:43:54;;;;;;;5.22;3.65;;;;;;;;;;5075184;28;20044;-63
2023/05/02 06:46:22;;;;;;;7.20;3.95;;;;;;;;;;5091893;28;20071;-63
2023/05/02 06:48:50;;;;;;;5.85;3.45;;;;;;;;;;5092915;28;20040;-62
2023/05/02 06:51:18;;;;;;;6.50;3.80;;;;;;;;;;5089429;28;20078;-63
2023/05/02 06:53:45;;;;;;;4.90;3.65;;;;;;;;;;5086393;28;20043;-63
2023/05/02 06:56:13;;;;;;;3.10;2.80;;;;;;;;;;5083622;28;20039;-63
2023/05/02 06:58:40;;;;;;;5.97;3.05;;;;;;;;;;5080424;28;20051;-64
2023/05/02 07:01:08;;;;;;;4.63;2.92;;;;;;;;;;5081057;28;20105;-63
2023/05/02 07:03:35;;;;;;;6.90;3.30;;;;;;;;;;5089616;28;20054;-65
2023/05/02 07:06:03;;;;;;;5.63;3.10;;;;;;;;;;5092047;28;20425;-64
2023/05/02 07:08:31;;;;;;;5.03;2.70;;;;;;;;;;5092530;28;20044;-64
2023/05/02 07:10:58;;;;;;;6.05;3.17;;;;;;;;;;5092538;28;20040;-63
2023/05/02 07:13:25;;;;;;;6.65;2.80;;;;;;;;;;5074465;28;20036;-62
2023/05/02 07:15:53;;;;;;;4.78;2.50;;;;;;;;;;5092647;28;20089;-62
2023/05/02 07:18:21;;;;;;;4.07;2.85;;;;;;;;;;5092568;28;20106;-62
2023/05/02 07:20:48;;;;;;;5.72;2.83;;;;;;;;;;5092575;28;20033;-62
2023/05/02 07:23:15;;;;;;;4.57;2.63;;;;;;;;;;5074785;28;20075;-62
2023/05/02 07:25:43;;;;;;;9.13;3.28;;;;;;;;;;5092372;28;20039;-62
2023/05/02 07:28:11;;;;;;;7.63;3.42;;;;;;;;;;5090944;28;20043;-63
2023/05/02 07:30:38;;;;;;;5.65;2.58;;;;;;;;;;5092309;28;20068;-64
2023/05/02 07:33:06;;;;;;;7.80;2.75;;;;;;;;;;5092389;28;20040;-61
2023/05/02 07:35:35;;;;;;;6.10;2.80;;;;;;;;;;5092347;28;20120;-63
2023/05/02 07:38:02;;;;;;;4.03;2.60;;;;;;;;;;5086862;28;20169;-61
2023/05/02 07:40:30;;;;;;;5.25;2.80;;;;;;;;;;5077354;28;20053;-62
2023/05/02 07:43:00;;;;;;;3.80;2.20;;;;;;;;;;5091123;28;20041;-63
2023/05/02 07:45:28;;;;;;;4.80;2.30;;;;;;;;;;5090277;28;20473;-62
2023/05/02 07:47:55;;;;;;;5.07;2.92;;;;;;;;;;5092365;28;20042;-62
2023/05/02 07:50:23;;;;;;;6.25;2.47;;;;;;;;;;5086830;28;20110;-62
2023/05/02 07:52:51;;;;;;;5.97;2.55;;;;;;;;;;5074255;28;20446;-62
2023/05/02 07:55:19;;;;;;;6.60;2.40;;;;;;;;;;5087452;28;20090;-63
2023/05/02 07:57:46;;;;;;;4.20;2.40;;;;;;;;;;5071897;28;20037;-63
2023/05/02 08:00:14;;;;;;;4.32;2.50;;;;;;;;;;5081404;28;20048;-63
2023/05/02 08:02:41;;;;;;;6.75;2.63;;;;;;;;;;5092227;28;20058;-63
2023/05/02 08:05:09;;;;;;;5.93;2.35;;;;;;;;;;5090183;28;20051;-63
2023/05/02 08:07:37;;;;;;;6.20;2.67;;;;;;;;;;5090662;28;20040;-63
2023/05/02 08:10:07;;;;;;;4.75;2.60;;;;;;;;;;5090970;28;20052;-63
2023/05/02 08:12:39;;;;;;;5.60;2.60;;;;;;;;;;5091770;28;20131;-62
2023/05/02 08:15:12;;;;;;;6.38;2.55;;;;;;;;;;5091653;28;20040;-63
2023/05/02 08:17:40;;;;;;;6.63;2.50;;;;;;;;;;5095292;28;20048;-63
2023/05/02 08:20:07;;;;;;;5.43;2.80;;;;;;;;;;5095436;28;20119;-63
2023/05/02 08:22:35;;;;;;;5.80;2.40;;;;;;;;;;5095500;28;20040;-63
2023/05/02 08:25:02;;;;;;;5.45;2.60;;;;;;;;;;5095367;28;20084;-63
2023/05/02 08:27:30;;;;;;;5.22;2.33;;;;;;;;;;5095092;28;20040;-63
2023/05/02 08:29:57;;;;;;;5.07;2.55;;;;;;;;;;5095256;28;20102;-63
2023/05/02 08:32:28;;;;;;;3.60;2.53;;;;;;;;;;5094744;28;20047;-63
2023/05/02 08:34:56;;;;;;;3.10;2.33;;;;;;;;;;5082905;28;20056;-63
2023/05/02 08:37:24;;;;;;;3.58;2.50;;;;;;;;;;5085237;28;20036;-63
2023/05/02 08:39:52;;;;;;;3.10;2.33;;;;;;;;;;5092371;28;20040;-63
2023/05/02 08:42:19;;;;;;;3.67;2.33;;;;;;;;;;5094383;28;20605;-62
2023/05/02 08:44:48;;;;;;;3.80;2.70;;;;;;;;;;5071480;28;20115;-63
2023/05/02 08:47:16;;;;;;;6.32;2.35;;;;;;;;;;5073693;28;20040;-62
2023/05/02 08:49:43;;;;;;;5.85;2.83;;;;;;;;;;5073644;28;20048;-63
2023/05/02 08:52:12;;;;;;;3.92;2.67;;;;;;;;;;5074355;28;20044;-62
2023/05/02 08:54:40;;;;;;;6.78;3.05;;;;;;;;;;5056697;28;20102;-63
2023/05/02 08:57:07;;;;;;;2.60;2.25;;;;;;;;;;5074398;28;20069;-63
2023/05/02 08:59:35;;;;;;;3.65;2.22;;;;;;;;;;5074621;28;20040;-62
2023/05/02 09:02:12;;;;;;;7.35;3.35;;;;;;;;;;5074294;28;20041;-62
2023/05/02 09:04:41;;;;;;;6.20;2.80;;;;;;;;;;5074526;28;20043;-63
2023/05/02 09:07:09;;;;;;;5.72;2.60;;;;;;;;;;5074746;28;20552;-63
2023/05/02 09:09:37;;;;;;;5.97;3.67;;;;;;;;;;5074338;28;20555;-62
2023/05/02 09:12:05;;;;;;;12.00;7.70;;;;;;;;;;5074321;28;20055;-63
2023/05/02 09:14:32;;;;;;;7.63;3.63;;;;;;;;;;5074404;28;20120;-63
2023/05/02 09:17:01;;;;;;;8.23;4.13;;;;;;;;;;5074446;28;20041;-63
2023/05/02 09:19:28;;;;;;;7.50;3.30;;;;;;;;;;5074099;28;20185;-63
2023/05/02 09:22:00;;;;;;;5.32;2.58;;;;;;;;;;5074133;28;20127;-63
2023/05/02 09:24:28;;;;;;;8.00;2.53;;;;;;;;;;5074126;28;20043;-63
2023/05/02 09:26:57;;;;;;;6.70;3.60;;;;;;;;;;5073817;28;20045;-63
2023/05/02 09:29:27;;;;;;;4.38;2.40;;;;;;;;;;5073725;28;20041;-63
2023/05/02 09:31:55;;;;;;;3.70;2.80;;;;;;;;;;5074031;28;20414;-64
2023/05/02 09:34:23;;;;;;;6.90;4.03;;;;;;;;;;5073999;28;20090;-63
2023/05/02 09:36:52;;;;;;;6.50;3.55;;;;;;;;;;5074014;28;20041;-63
2023/05/02 09:39:28;;;;;;;8.18;2.95;;;;;;;;;;5074005;28;20032;-64
2023/05/02 09:41:55;;;;;;;7.45;3.13;;;;;;;;;;5073794;28;20041;-63
2023/05/02 09:44:24;;;;;;;5.78;2.42;;;;;;;;;;5073918;28;20067;-63
2023/05/02 09:46:53;;;;;;;4.00;2.70;;;;;;;;;;5073722;28;20040;-64
2023/05/02 09:49:39;;;;;;;7.03;3.30;;;;;;;;;;5073678;28;20518;-64
2023/05/02 09:52:14;;;;;;;4.78;2.60;;;;;;;;;;5073861;28;20041;-64
2023/05/02 09:54:41;;;;;;;4.80;2.20;;;;;;;;;;5073613;28;20052;-64
2023/05/02 09:57:09;;;;;;;5.40;2.63;;;;;;;;;;5073572;28;20107;-64
2023/05/02 09:59:40;;;;;;;5.88;3.60;;;;;;;;;;5073527;28;20071;-64
2023/05/02 10:02:10;;;;;;;8.18;4.07;;;;;;;;;;5073240;28;20052;-64
2023/05/02 10:04:38;;;;;;;10.00;4.85;;;;;;;;;;5088931;28;20072;-64
2023/05/02 10:07:09;;;;;;;5.20;3.70;;;;;;;;;;5073304;28;20045;-65
2023/05/02 10:09:39;;;;;;;5.22;3.60;;;;;;;;;;5073110;28;20044;-64
2023/05/02 10:12:07;;;;;;;14.20;5.75;;;;;;;;;;5073064;28;20403;-64
2023/05/02 10:14:42;;;;;;;4.82;3.08;;;;;;;;;;5088973;28;20379;-64
2023/05/02 10:17:26;;;;;;;16.23;3.90;;;;;;;;;;5073213;28;20131;-64
2023/05/02 10:20:03;;;;;;;6.63;2.40;;;;;;;;;;5073201;28;20115;-64
2023/05/02 10:22:30;;;;;;;6.53;2.65;;;;;;;;;;5073111;28;20064;-64
2023/05/02 10:24:59;;;;;;;5.20;2.80;;;;;;;;;;5072923;28;20498;-64
2023/05/02 10:27:29;;;;;;;5.43;2.83;;;;;;;;;;5072855;28;20091;-64
2023/05/02 10:29:58;;;;;;;4.15;2.15;;;;;;;;;;5072830;28;20490;-64
2023/05/02 10:32:29;;;;;;;2.47;2.03;;;;;;;;;;5072871;28;20082;-64
2023/05/02 10:34:57;;;;;;;4.38;2.10;;;;;;;;;;5073044;28;20044;-63
2023/05/02 10:37:25;;;;;;;6.20;2.63;;;;;;;;;;5072803;28;20143;-64
2023/05/02 10:39:53;;;;;;;7.55;2.95;;;;;;;;;;5053865;28;20040;-64
2023/05/02 10:42:21;;;;;;;13.60;4.05;;;;;;;;;;5072826;28;20040;-64
2023/05/02 10:44:49;;;;;;;4.90;3.08;;;;;;;;;;5072635;28;20045;-63
2023/05/02 10:47:20;;;;;;;6.40;2.40;;;;;;;;;;5072958;28;20095;-64
2023/05/02 10:50:01;;;;;;;2.13;1.60;;;;;;;;;;5088167;28;20036;-63
2023/05/02 10:52:33;;;;;;;2.55;1.75;;;;;;;;;;5088094;28;20055;-64
2023/05/02 10:55:19;;;;;;;9.80;2.00;;;;;;;;;;5072568;28;20460;-64
2023/05/02 10:57:56;;;;;;;3.03;1.88;;;;;;;;;;5072844;28;20106;-64
2023/05/02 11:00:28;;;;;;;6.05;2.00;;;;;;;;;;5072400;28;20045;-64
2023/05/02 11:02:56;;;;;;;5.00;1.77;;;;;;;;;;5072544;28;20123;-64
2023/05/02 11:05:24;;;;;;;3.45;2.00;;;;;;;;;;5072435;28;20051;-64
2023/05/02 11:08:11;;;;;;;2.88;2.00;;;;;;;;;;5088048;28;20040;-64
2023/05/02 11:10:39;;;;;;;4.50;2.00;;;;;;;;;;5087881;28;20131;-64
2023/05/02 11:13:06;;;;;;;7.15;3.17;;;;;;;;;;5072418;28;20041;-63
2023/05/02 11:15:34;;;;;;;3.35;2.00;;;;;;;;;;5072293;28;20048;-63
2023/05/02 11:18:01;;;;;;;3.55;2.10;;;;;;;;;;5072214;28;20040;-64
2023/05/02 11:20:30;;;;;;;5.50;2.00;;;;;;;;;;5054269;28;20414;-63
2023/05/02 11:22:59;;;;;;;4.53;2.10;;;;;;;;;;5072493;28;20041;-64
2023/05/02 11:25:29;;;;;;;3.58;1.73;;;;;;;;;;5087769;28;20036;-64
2023/05/02 11:27:57;;;;;;;2.70;1.80;;;;;;;;;;5072195;28;20055;-63
2023/05/02 11:30:42;;;;;;;3.40;1.85;;;;;;;;;;5072181;28;20032;-63
2023/05/02 11:33:11;;;;;;;4.07;1.90;;;;;;;;;;5055042;28;20040;-63
2023/05/02 11:35:41;;;;;;;5.78;2.40;;;;;;;;;;5072285;28;20039;-64
2023/05/02 11:38:13;;;;;;;3.08;1.88;;;;;;;;;;5072200;28;20044;-64
2023/05/02 11:40:40;;;;;;;3.53;1.70;;;;;;;;;;5072559;28;20041;-64
2023/05/02 11:43:15;;;;;;;2.90;1.58;;;;;;;;;;5072120;28;20044;-63
2023/05/02 11:45:43;;;;;;;4.80;1.60;;;;;;;;;;5054214;28;20117;-64
2023/05/02 11:48:12;;;;;;;1.98;1.65;;;;;;;;;;5072065;28;20045;-64
2023/05/02 11:50:44;;;;;;;2.15;1.60;;;;;;;;;;5072799;28;20052;-64
2023/05/02 11:53:17;;;;;;;2.10;1.83;;;;;;;;;;5075913;28;20040;-63
2023/05/02 11:55:51;;;;;;;1.85;1.50;;;;;;;;;;5075894;28;20090;-64
2023/05/02 11:58:20;;;;;;;3.60;1.50;;;;;;;;;;5076028;28;20051;-63
2023/05/02 12:00:48;;;;;;;3.22;1.60;;;;;;;;;;5075469;28;20102;-64
2023/05/02 12:03:29;;;;;;;6.70;1.55;;;;;;;;;;5089872;28;20051;-64
2023/05/02 12:05:58;;;;;;;5.38;1.90;;;;;;;;;;5075605;28;20075;-63
2023/05/02 12:08:26;;;;;;;2.53;1.90;;;;;;;;;;5075546;28;20075;-64
2023/05/02 12:10:55;;;;;;;3.33;1.95;;;;;;;;;;5075448;28;20048;-64
2023/05/02 12:13:25;;;;;;;3.25;1.70;;;;;;;;;;5075656;28;20053;-63
2023/05/02 12:15:53;;;;;;;12.82;1.90;;;;;;;;;;5074762;28;20052;-63
2023/05/02 12:18:24;;;;;;;4.35;2.17;;;;;;;;;;5083029;28;20048;-62
2023/05/02 12:20:52;;;;;;;4.45;1.60;;;;;;;;;;5094514;28;20047;-62
2023/05/02 12:23:20;;;;;;;4.00;1.90;;;;;;;;;;5092139;28;20063;-63
2023/05/02 12:25:48;;;;;;;3.75;2.08;;;;;;;;;;5080718;28;20059;-60
2023/05/02 12:28:17;;;;;;;2.80;1.92;;;;;;;;;;5074183;28;20494;-63
2023/05/02 12:30:47;;;;;;;3.95;1.50;;;;;;;;;;5082073;28;20051;-63
2023/05/02 12:33:15;;;;;;;4.40;2.03;;;;;;;;;;5082288;28;20032;-62
2023/05/02 12:35:47;;;;;;;2.67;1.80;;;;;;;;;;5074863;28;20040;-63
2023/05/02 12:38:16;;;;;;;3.05;1.75;;;;;;;;;;5077896;28;20075;-62
2023/05/02 12:40:56;;;;;;;2.28;1.80;;;;;;;;;;5094828;28;20036;-62
2023/05/02 12:43:24;;;;;;;4.90;1.95;;;;;;;;;;5094767;28;20085;-62
2023/05/02 12:46:08;;;;;;;3.00;1.50;;;;;;;;;;5094680;28;20090;-62
2023/05/02 12:48:37;;;;;;;1.95;1.60;;;;;;;;;;5094468;28;20028;-62
2023/05/02 12:51:04;;;;;;;3.83;1.63;;;;;;;;;;5094335;28;20040;-63
2023/05/02 12:53:39;;;;;;;2.65;1.60;;;;;;;;;;5074633;28;20036;-63
2023/05/02 12:56:07;;;;;;;;;;;;;;;;;;5094051;28;20048;-63
2023/05/02 12:58:41;;;;;;;3.35;1.50;;;;;;;;;;5094380;28;19924;-63
2023/05/02 13:01:09;;;;;;;4.07;1.60;;;;;;;;;;5092973;28;20143;-63
2023/05/02 13:03:37;;;;;;;6.40;1.83;;;;;;;;;;5093352;28;20040;-64
2023/05/02 13:06:05;;;;;;;10.68;2.28;;;;;;;;;;5094337;28;20047;-63
2023/05/02 13:08:33;;;;;;;3.42;1.80;;;;;;;;;;5094035;28;20036;-63
2023/05/02 13:11:01;;;;;;;6.22;1.80;;;;;;;;;;5093942;28;20130;-61
2023/05/02 13:13:29;;;;;;;2.15;1.58;;;;;;;;;;5076280;28;20428;-62
2023/05/02 13:15:57;;;;;;;2.72;1.60;;;;;;;;;;5094143;28;20047;-62
2023/05/02 13:18:26;;;;;;;4.70;1.90;;;;;;;;;;5093885;28;20044;-62
2023/05/02 13:20:55;;;;;;;3.00;1.55;;;;;;;;;;5093983;28;20094;-63
2023/05/02 13:23:22;;;;;;;6.00;1.83;;;;;;;;;;5093888;28;20478;-63
2023/05/02 13:25:50;;;;;;;4.15;1.83;;;;;;;;;;5089112;28;20406;-63
2023/05/02 13:28:18;;;;;;;7.20;2.13;;;;;;;;;;5084514;28;20115;-63
2023/05/02 13:30:45;;;;;;;5.10;1.80;;;;;;;;;;5092388;28;20489;-64
2023/05/02 13:33:13;;;;;;;9.38;3.00;;;;;;;;;;5075357;28;20475;-63
2023/05/02 13:35:40;;;;;;;3.53;2.00;;;;;;;;;;5093653;28;20043;-63
2023/05/02 13:38:08;;;;;;;4.10;1.90;;;;;;;;;;5093784;28;20040;-63
2023/05/02 13:40:35;;;;;;;4.93;2.00;;;;;;;;;;5082126;28;20036;-63
2023/05/02 13:43:03;;;;;;;6.63;2.60;;;;;;;;;;5078352;28;20127;-63
2023/05/02 13:45:30;;;;;;;4.70;1.90;;;;;;;;;;5086011;28;20043;-62
2023/05/02 13:47:57;;;;;;;3.72;1.58;;;;;;;;;;5093200;28;20051;-62
2023/05/02 13:50:25;;;;;;;4.78;2.00;;;;;;;;;;5075518;28;20490;-62
2023/05/02 13:52:53;;;;;;;3.28;1.90;;;;;;;;;;5075050;28;20036;-62
2023/05/02 13:55:21;;;;;;;5.32;1.67;;;;;;;;;;5093418;28;20134;-62
2023/05/02 13:57:48;;;;;;;3.92;1.85;;;;;;;;;;5093146;28;20076;-61
2023/05/02 14:00:16;;;;;;;2.55;1.67;;;;;;;;;;5093676;28;20550;-62
2023/05/02 14:02:47;;;;;;;1.95;1.35;;;;;;;;;;5092970;28;20135;-62
2023/05/02 14:05:14;;;;;;;4.72;1.70;;;;;;;;;;5093275;28;20386;-62
2023/05/02 14:07:42;;;;;;;2.42;1.48;;;;;;;;;;5093166;28;20036;-62
2023/05/02 14:10:10;;;;;;;2.83;1.60;;;;;;;;;;5093266;28;20039;-63
2023/05/02 14:12:37;;;;;;;5.78;2.03;;;;;;;;;;5093100;28;20819;-62
2023/05/02 14:15:05;;;;;;;3.95;1.80;;;;;;;;;;5092841;28;20698;-63
2023/05/02 14:17:32;;;;;;;3.03;1.70;;;;;;;;;;5093006;28;20546;-63
2023/05/02 14:20:00;;;;;;;2.17;1.40;;;;;;;;;;5092780;28;20044;-63
2023/05/02 14:22:28;;;;;;;3.65;1.58;;;;;;;;;;5074649;28;20428;-64
2023/05/02 14:24:55;;;;;;;2.72;1.83;;;;;;;;;;5093022;28;20044;-63
2023/05/02 14:27:24;;;;;;;3.17;1.90;;;;;;;;;;5078188;28;20489;-63
2023/05/02 14:29:52;;;;;;;2.72;1.80;;;;;;;;;;5093011;28;20043;-63
2023/05/02 14:32:20;;;;;;;7.47;1.77;;;;;;;;;;5092528;28;20039;-63
2023/05/02 14:34:47;;;;;;;5.63;2.03;;;;;;;;;;5092638;28;20042;-63
2023/05/02 14:37:15;;;;;;;2.42;1.40;;;;;;;;;;5091942;28;20056;-64
2023/05/02 14:39:44;;;;;;;5.22;1.75;;;;;;;;;;5092460;28;20055;-64
2023/05/02 14:42:14;;;;;;;3.90;1.80;;;;;;;;;;5092448;28;20040;-63
2023/05/02 14:44:41;;;;;;;3.80;1.52;;;;;;;;;;5092384;28;20040;-64
2023/05/02 14:47:09;;;;;;;3.75;1.60;;;;;;;;;;5092374;28;20075;-63
2023/05/02 14:49:36;;;;;;;3.20;1.75;;;;;;;;;;5092288;28;20089;-63
2023/05/02 14:52:04;;;;;;;4.47;1.63;;;;;;;;;;5092235;28;20048;-63
2023/05/02 14:54:31;;;;;;;4.75;1.95;;;;;;;;;;5092177;28;20040;-63